PWSweather.com
Personal Weather Stations
Station Observations
BRISTOL
HorfieldFilton, BristolGB BS7

HorfieldFiltonBristolGB BS7

Lat: 51.5, Lon: -2.576

Elevation: 272

Station Type: Davis VP2

http://www.martynhicks.co.uk/weather/data.php

Latest ConditionsUpdated 8:20:00 PM GMT Saturday, Aug 27, 2016
Currently Today's Max Today's Min Today's Average
Temperature 69.2°F20.7°C 71.9°F22.2°C 52.3°F11.3°C 62.7°F17.1°C
Dew Point 65.2°F18.4°C 65.7°F18.7°C 48.9°F9.4°C 57.9°F14.4°C
Winds Calm Calm 2.3 mph NE3.7 kmh NE - 0.2 mph 0.3 kmh
Wind Gusts -- 9.2 mph14.8 kmh - -
Humidity 87% 91% 77% 84%
Pressure 29.88 in1011.9 mb 30.13 in1020.3 mb 29.88 in1011.9 mb -
Precipitation - 0.01 in0.3 mm - -
Hour Temp Dew Point Humidity Winds Wind Gusts Pressure Precip Precip Rate Daily Precip Total
08:20 PM 69.2°F20.7°C 65.2°F18.4°C 87% Calm Calm -- 29.88 in1011.9 mb - 0.00 in0.0 mm 0.01 in0.3 mm
08:10 PM 69.3°F20.7°C 65.3°F18.5°C 87% Calm Calm -- 29.88 in1011.9 mb - 0.00 in0.0 mm 0.01 in0.3 mm
08:00 PM 69.5°F20.8°C 65.5°F18.6°C 87% Calm Calm 1.2 mph1.9 kmh 29.89 in1012.2 mb - 0.00 in0.0 mm 0.01 in0.3 mm
07:50 PM 69.6°F20.9°C 65.2°F18.4°C 86% Calm Calm -- 29.89 in1012.2 mb - 0.00 in0.0 mm 0.01 in0.3 mm
07:40 PM 69.8°F21.0°C 65.4°F18.6°C 86% Calm Calm -- 29.89 in1012.2 mb - 0.00 in0.0 mm 0.01 in0.3 mm
07:30 PM 70.0°F21.1°C 65.3°F18.5°C 85% Calm Calm -- 29.89 in1012.2 mb - 0.00 in0.0 mm 0.01 in0.3 mm
07:20 PM 70.3°F21.3°C 65.5°F18.6°C 85% Calm Calm -- 29.89 in1012.2 mb - 0.00 in0.0 mm 0.01 in0.3 mm
07:10 PM 70.4°F21.3°C 65.4°F18.6°C 84% Calm Calm -- 29.89 in1012.2 mb - 0.00 in0.0 mm 0.01 in0.3 mm
07:00 PM 70.6°F21.4°C 65.5°F18.6°C 84% Calm Calm 2.3 mph3.7 kmh 29.89 in1012.2 mb - 0.00 in0.0 mm 0.01 in0.3 mm
06:50 PM 70.7°F21.5°C 65.6°F18.7°C 84% Calm Calm 1.2 mph1.9 kmh 29.89 in1012.2 mb - 0.00 in0.0 mm 0.01 in0.3 mm
06:40 PM 70.8°F21.6°C 65.7°F18.7°C 84% 1.2 mph ESE1.9 kmh ESE 5.8 mph9.3 kmh 29.89 in1012.2 mb - 0.00 in0.0 mm 0.01 in0.3 mm
06:30 PM 70.8°F21.6°C 65.4°F18.6°C 83% 1.2 mph ESE1.9 kmh ESE 3.5 mph5.6 kmh 29.89 in1012.2 mb - 0.00 in0.0 mm 0.01 in0.3 mm
06:20 PM 70.8°F21.6°C 65.4°F18.6°C 83% 2.3 mph ESE3.7 kmh ESE 3.5 mph5.6 kmh 29.89 in1012.2 mb - 0.00 in0.0 mm 0.01 in0.3 mm
06:10 PM 70.9°F21.6°C 65.5°F18.6°C 83% Calm Calm -- 29.89 in1012.2 mb - 0.00 in0.0 mm 0.01 in0.3 mm
06:00 PM 71.0°F21.7°C 65.2°F18.4°C 82% Calm Calm -- 29.89 in1012.2 mb - 0.00 in0.0 mm 0.01 in0.3 mm
05:50 PM 71.2°F21.8°C 65.4°F18.6°C 82% Calm Calm 1.2 mph1.9 kmh 29.89 in1012.2 mb - 0.00 in0.0 mm 0.01 in0.3 mm
05:40 PM 71.3°F21.8°C 65.5°F18.6°C 82% Calm Calm 1.2 mph1.9 kmh 29.89 in1012.2 mb - 0.00 in0.0 mm 0.01 in0.3 mm
05:30 PM 71.4°F21.9°C 65.6°F18.7°C 82% Calm Calm -- 29.88 in1011.9 mb - 0.00 in0.0 mm 0.01 in0.3 mm
05:20 PM 71.5°F21.9°C 65.4°F18.6°C 81% 1.2 mph E1.9 kmh E 2.3 mph3.7 kmh 29.88 in1011.9 mb - 0.00 in0.0 mm 0.01 in0.3 mm
05:10 PM 71.5°F21.9°C 65.4°F18.6°C 81% Calm Calm 1.2 mph1.9 kmh 29.89 in1012.2 mb - 0.00 in0.0 mm 0.01 in0.3 mm
05:00 PM 71.6°F22.0°C 65.1°F18.4°C 80% Calm Calm -- 29.90 in1012.5 mb - 0.00 in0.0 mm 0.01 in0.3 mm
04:50 PM 71.7°F22.1°C 65.2°F18.4°C 80% Calm Calm 1.2 mph1.9 kmh 29.90 in1012.5 mb - 0.00 in0.0 mm 0.01 in0.3 mm
04:40 PM 71.7°F22.1°C 65.2°F18.4°C 80% Calm Calm 1.2 mph1.9 kmh 29.91 in1012.9 mb - 0.00 in0.0 mm 0.01 in0.3 mm
04:30 PM 71.7°F22.1°C 64.8°F18.2°C 79% 1.2 mph E1.9 kmh E 3.5 mph5.6 kmh 29.91 in1012.9 mb - 0.00 in0.0 mm 0.01 in0.3 mm
04:20 PM 71.7°F22.1°C 64.4°F18.0°C 78% Calm Calm 1.2 mph1.9 kmh 29.91 in1012.9 mb - 0.00 in0.0 mm 0.01 in0.3 mm
04:10 PM 71.7°F22.1°C 64.5°F18.1°C 78% Calm Calm 3.5 mph5.6 kmh 29.91 in1012.9 mb - 0.00 in0.0 mm 0.01 in0.3 mm
04:00 PM 71.9°F22.2°C 64.7°F18.2°C 78% Calm Calm 1.2 mph1.9 kmh 29.92 in1013.2 mb - 0.00 in0.0 mm 0.01 in0.3 mm
03:50 PM 71.8°F22.1°C 64.9°F18.3°C 79% Calm Calm -- 29.92 in1013.2 mb - 0.00 in0.0 mm 0.01 in0.3 mm
03:40 PM 71.5°F21.9°C 65.0°F18.3°C 80% 1.2 mph E1.9 kmh E 3.5 mph5.6 kmh 29.92 in1013.2 mb - 0.00 in0.0 mm 0.01 in0.3 mm
03:30 PM 71.1°F21.7°C 64.6°F18.1°C 80% Calm Calm 1.2 mph1.9 kmh 29.93 in1013.5 mb - 0.00 in0.0 mm 0.01 in0.3 mm
03:20 PM 70.7°F21.5°C 64.2°F17.9°C 80% Calm Calm 1.2 mph1.9 kmh 29.93 in1013.5 mb - 0.00 in0.0 mm 0.01 in0.3 mm
03:10 PM 70.6°F21.4°C 63.8°F17.7°C 79% 1.2 mph E1.9 kmh E 2.3 mph3.7 kmh 29.93 in1013.5 mb - 0.00 in0.0 mm 0.01 in0.3 mm
03:00 PM 70.3°F21.3°C 63.8°F17.7°C 80% Calm Calm 1.2 mph1.9 kmh 29.94 in1013.9 mb - 0.00 in0.0 mm 0.01 in0.3 mm
02:50 PM 70.2°F21.2°C 63.4°F17.4°C 79% Calm Calm 1.2 mph1.9 kmh 29.94 in1013.9 mb - 0.00 in0.0 mm 0.01 in0.3 mm
02:40 PM 70.4°F21.3°C 63.6°F17.6°C 79% 1.2 mph NE1.9 kmh NE 3.5 mph5.6 kmh 29.94 in1013.9 mb - 0.00 in0.0 mm 0.01 in0.3 mm
02:30 PM 70.5°F21.4°C 64.0°F17.8°C 80% Calm Calm 1.2 mph1.9 kmh 29.94 in1013.9 mb - 0.00 in0.0 mm 0.01 in0.3 mm
02:20 PM 70.3°F21.3°C 63.8°F17.7°C 80% 1.2 mph NE1.9 kmh NE 3.5 mph5.6 kmh 29.94 in1013.9 mb - 0.00 in0.0 mm 0.01 in0.3 mm
02:10 PM 70.0°F21.1°C 63.9°F17.7°C 81% 2.3 mph ENE3.7 kmh ENE 8.1 mph13.0 kmh 29.94 in1013.9 mb - 0.00 in0.0 mm 0.01 in0.3 mm
02:00 PM 69.8°F21.0°C 63.7°F17.6°C 81% 1.2 mph E1.9 kmh E 2.3 mph3.7 kmh 29.95 in1014.2 mb - 0.00 in0.0 mm 0.01 in0.3 mm
01:50 PM 69.7°F20.9°C 63.6°F17.6°C 81% Calm Calm 3.5 mph5.6 kmh 29.95 in1014.2 mb - 0.00 in0.0 mm 0.01 in0.3 mm
01:40 PM 69.7°F20.9°C 63.6°F17.6°C 81% Calm Calm 1.2 mph1.9 kmh 29.95 in1014.2 mb - 0.00 in0.0 mm 0.01 in0.3 mm
01:30 PM 69.8°F21.0°C 64.1°F17.8°C 82% Calm Calm -- 29.95 in1014.2 mb - 0.00 in0.0 mm 0.01 in0.3 mm
01:20 PM 69.9°F21.1°C 64.1°F17.8°C 82% Calm Calm 4.6 mph7.4 kmh 29.95 in1014.2 mb - 0.00 in0.0 mm 0.01 in0.3 mm
01:10 PM 69.9°F21.1°C 64.1°F17.8°C 82% Calm Calm 1.2 mph1.9 kmh 29.95 in1014.2 mb - 0.00 in0.0 mm 0.01 in0.3 mm
01:00 PM 69.8°F21.0°C 63.3°F17.4°C 80% Calm Calm 3.5 mph5.6 kmh 29.95 in1014.2 mb - 0.00 in0.0 mm 0.01 in0.3 mm
12:50 PM 70.0°F21.1°C 62.8°F17.1°C 78% 1.2 mph NNE1.9 kmh NNE 5.8 mph9.3 kmh 29.96 in1014.6 mb - 0.00 in0.0 mm 0.01 in0.3 mm
12:40 PM 70.5°F21.4°C 63.0°F17.2°C 77% 1.2 mph N1.9 kmh N 8.1 mph13.0 kmh 29.96 in1014.6 mb - 0.00 in0.0 mm 0.01 in0.3 mm
12:30 PM 70.9°F21.6°C 63.3°F17.4°C 77% Calm Calm 2.3 mph3.7 kmh 29.97 in1014.9 mb - 0.00 in0.0 mm 0.01 in0.3 mm
12:20 PM 70.8°F21.6°C 63.2°F17.3°C 77% 1.2 mph NE1.9 kmh NE 5.8 mph9.3 kmh 29.97 in1014.9 mb - 0.00 in0.0 mm 0.01 in0.3 mm
12:10 PM 71.0°F21.7°C 63.4°F17.4°C 77% 1.2 mph NE1.9 kmh NE 4.6 mph7.4 kmh 29.98 in1015.2 mb - 0.00 in0.0 mm 0.01 in0.3 mm
12:00 PM 71.1°F21.7°C 63.5°F17.5°C 77% Calm Calm 3.5 mph5.6 kmh 29.98 in1015.2 mb - 0.00 in0.0 mm 0.01 in0.3 mm
11:50 AM 71.0°F21.7°C 63.8°F17.7°C 78% 1.2 mph NNE1.9 kmh NNE 9.2 mph14.8 kmh 29.98 in1015.2 mb - 0.00 in0.0 mm 0.01 in0.3 mm
11:40 AM 70.7°F21.5°C 63.5°F17.5°C 78% Calm Calm 4.6 mph7.4 kmh 29.98 in1015.2 mb - 0.00 in0.0 mm 0.01 in0.3 mm
11:30 AM 70.4°F21.3°C 63.2°F17.3°C 78% 1.2 mph NE1.9 kmh NE 5.8 mph9.3 kmh 29.98 in1015.2 mb - 0.00 in0.0 mm 0.01 in0.3 mm
11:20 AM 69.9°F21.1°C 63.1°F17.3°C 79% Calm Calm 3.5 mph5.6 kmh 29.99 in1015.6 mb - 0.00 in0.0 mm 0.01 in0.3 mm
11:10 AM 69.7°F20.9°C 62.5°F16.9°C 78% Calm Calm 2.3 mph3.7 kmh 30.00 in1015.9 mb - 0.00 in0.0 mm 0.01 in0.3 mm
11:00 AM 68.8°F20.4°C 62.3°F16.8°C 80% 2.3 mph NE3.7 kmh NE 3.5 mph5.6 kmh 29.99 in1015.6 mb - 0.00 in0.0 mm 0.01 in0.3 mm
10:50 AM 67.7°F19.8°C 62.0°F16.7°C 82% Calm Calm -- 30.00 in1015.9 mb - 0.00 in0.0 mm 0.01 in0.3 mm
10:40 AM 66.1°F18.9°C 61.1°F16.2°C 84% Calm Calm -- 30.00 in1015.9 mb - 0.00 in0.0 mm 0.01 in0.3 mm
10:30 AM 64.9°F18.3°C 60.6°F15.9°C 86% Calm Calm -- 30.01 in1016.3 mb - 0.00 in0.0 mm 0.01 in0.3 mm
10:20 AM 63.4°F17.4°C 59.1°F15.1°C 86% Calm Calm -- 30.02 in1016.6 mb - 0.00 in0.0 mm 0.01 in0.3 mm
10:10 AM 62.7°F17.1°C 58.5°F14.7°C 86% Calm Calm -- 30.02 in1016.6 mb - 0.00 in0.0 mm 0.01 in0.3 mm
10:00 AM 62.5°F16.9°C 58.2°F14.6°C 86% Calm Calm -- 30.03 in1016.9 mb - 0.00 in0.0 mm 0.01 in0.3 mm
09:50 AM 62.0°F16.7°C 57.5°F14.2°C 85% Calm Calm -- 30.04 in1017.3 mb - 0.00 in0.0 mm 0.01 in0.3 mm
09:40 AM 62.0°F16.7°C 57.4°F14.1°C 85% Calm Calm -- 30.04 in1017.3 mb - 0.00 in0.0 mm 0.01 in0.3 mm
09:30 AM 62.0°F16.7°C 57.4°F14.1°C 85% Calm Calm -- 30.05 in1017.6 mb - 0.00 in0.0 mm 0.01 in0.3 mm
09:20 AM 61.7°F16.5°C 57.5°F14.2°C 86% Calm Calm -- 30.05 in1017.6 mb - 0.00 in0.0 mm 0.01 in0.3 mm
09:10 AM 61.0°F16.1°C 57.1°F13.9°C 87% Calm Calm -- 30.05 in1017.6 mb - 0.00 in0.0 mm 0.01 in0.3 mm
09:00 AM 60.3°F15.7°C 56.7°F13.7°C 88% Calm Calm -- 30.05 in1017.6 mb - 0.00 in0.0 mm 0.01 in0.3 mm
08:50 AM 59.8°F15.4°C 56.2°F13.4°C 88% Calm Calm -- 30.05 in1017.6 mb - 0.00 in0.0 mm 0.01 in0.3 mm
08:40 AM 59.4°F15.2°C 56.2°F13.4°C 89% Calm Calm -- 30.05 in1017.6 mb - 0.00 in0.0 mm 0.01 in0.3 mm
08:30 AM 58.8°F14.9°C 55.6°F13.1°C 89% Calm Calm -- 30.06 in1017.9 mb - 0.00 in0.0 mm 0.01 in0.3 mm
08:20 AM 58.4°F14.7°C 55.5°F13.1°C 90% Calm Calm -- 30.06 in1017.9 mb - 0.00 in0.0 mm 0.01 in0.3 mm
08:10 AM 57.8°F14.3°C 54.9°F12.7°C 90% Calm Calm -- 30.06 in1017.9 mb - 0.00 in0.0 mm 0.01 in0.3 mm
08:00 AM 57.4°F14.1°C 54.5°F12.5°C 90% Calm Calm -- 30.07 in1018.3 mb - 0.00 in0.0 mm 0.01 in0.3 mm
07:50 AM 57.1°F13.9°C 54.2°F12.3°C 90% Calm Calm -- 30.07 in1018.3 mb - 0.00 in0.0 mm 0.01 in0.3 mm
07:40 AM 56.8°F13.8°C 54.2°F12.3°C 91% Calm Calm -- 30.07 in1018.3 mb - 0.00 in0.0 mm 0.01 in0.3 mm
07:30 AM 56.4°F13.6°C 53.5°F11.9°C 90% Calm Calm -- 30.07 in1018.3 mb - 0.00 in0.0 mm 0.01 in0.3 mm
07:20 AM 56.0°F13.3°C 53.1°F11.7°C 90% Calm Calm -- 30.07 in1018.3 mb - 0.00 in0.0 mm 0.01 in0.3 mm
07:10 AM 55.7°F13.2°C 52.8°F11.6°C 90% Calm Calm -- 30.08 in1018.6 mb - 0.00 in0.0 mm 0.01 in0.3 mm
07:00 AM 55.5°F13.1°C 52.6°F11.4°C 90% Calm Calm -- 30.07 in1018.3 mb - 0.01 in0.3 mm 0.01 in0.3 mm
06:50 AM 55.2°F12.9°C 52.0°F11.1°C 89% Calm Calm -- 30.08 in1018.6 mb - 0.00 in0.0 mm 0.00 in0.0 mm
06:40 AM 55.0°F12.8°C 51.8°F11.0°C 89% Calm Calm -- 30.08 in1018.6 mb - 0.00 in0.0 mm 0.00 in0.0 mm
06:30 AM 54.8°F12.7°C 51.6°F10.9°C 89% Calm Calm -- 30.09 in1019.0 mb - 0.00 in0.0 mm 0.00 in0.0 mm
06:20 AM 54.6°F12.6°C 51.4°F10.8°C 89% Calm Calm -- 30.09 in1019.0 mb - 0.00 in0.0 mm 0.00 in0.0 mm
06:10 AM 54.3°F12.4°C 51.1°F10.6°C 89% Calm Calm -- 30.09 in1019.0 mb - 0.00 in0.0 mm 0.00 in0.0 mm
06:00 AM 54.1°F12.3°C 50.9°F10.5°C 89% Calm Calm -- 30.08 in1018.6 mb - 0.00 in0.0 mm 0.00 in0.0 mm
05:50 AM 53.9°F12.2°C 50.7°F10.4°C 89% Calm Calm -- 30.08 in1018.6 mb - 0.00 in0.0 mm 0.00 in0.0 mm
05:40 AM 53.7°F12.1°C 50.5°F10.3°C 89% Calm Calm -- 30.08 in1018.6 mb - 0.00 in0.0 mm 0.00 in0.0 mm
05:30 AM 53.5°F11.9°C 50.3°F10.2°C 89% Calm Calm -- 30.08 in1018.6 mb - 0.00 in0.0 mm 0.00 in0.0 mm
05:20 AM 53.3°F11.8°C 50.1°F10.1°C 89% Calm Calm -- 30.08 in1018.6 mb - 0.00 in0.0 mm 0.00 in0.0 mm
05:10 AM 53.2°F11.8°C 50.0°F10.0°C 89% Calm Calm -- 30.08 in1018.6 mb - 0.00 in0.0 mm 0.00 in0.0 mm
05:00 AM 52.9°F11.6°C 49.7°F9.8°C 89% Calm Calm -- 30.08 in1018.6 mb - 0.00 in0.0 mm 0.00 in0.0 mm
04:50 AM 52.6°F11.4°C 49.4°F9.7°C 89% Calm Calm -- 30.09 in1019.0 mb - 0.00 in0.0 mm 0.00 in0.0 mm
04:40 AM 52.4°F11.3°C 48.9°F9.4°C 88% Calm Calm -- 30.09 in1019.0 mb - 0.00 in0.0 mm 0.00 in0.0 mm
04:30 AM 52.3°F11.3°C 48.9°F9.4°C 88% Calm Calm -- 30.09 in1019.0 mb - 0.00 in0.0 mm 0.00 in0.0 mm
04:20 AM 52.3°F11.3°C 48.9°F9.4°C 88% Calm Calm -- 30.09 in1019.0 mb - 0.00 in0.0 mm 0.00 in0.0 mm
04:10 AM 52.4°F11.3°C 48.9°F9.4°C 88% Calm Calm -- 30.09 in1019.0 mb - 0.00 in0.0 mm 0.00 in0.0 mm
04:00 AM 52.5°F11.4°C 49.0°F9.4°C 88% Calm Calm -- 30.09 in1019.0 mb - 0.00 in0.0 mm 0.00 in0.0 mm
03:50 AM 52.6°F11.4°C 49.1°F9.5°C 88% Calm Calm -- 30.09 in1019.0 mb - 0.00 in0.0 mm 0.00 in0.0 mm
03:40 AM 52.6°F11.4°C 49.2°F9.6°C 88% Calm Calm -- 30.09 in1019.0 mb - 0.00 in0.0 mm 0.00 in0.0 mm
03:30 AM 52.7°F11.5°C 49.2°F9.6°C 88% Calm Calm -- 30.10 in1019.3 mb - 0.00 in0.0 mm 0.00 in0.0 mm
03:20 AM 52.8°F11.6°C 49.3°F9.6°C 88% Calm Calm -- 30.10 in1019.3 mb - 0.00 in0.0 mm 0.00 in0.0 mm
03:10 AM 52.8°F11.6°C 49.3°F9.6°C 88% Calm Calm -- 30.10 in1019.3 mb - 0.00 in0.0 mm 0.00 in0.0 mm
03:00 AM 52.9°F11.6°C 49.4°F9.7°C 88% Calm Calm -- 30.10 in1019.3 mb - 0.00 in0.0 mm 0.00 in0.0 mm
02:50 AM 52.9°F11.6°C 49.4°F9.7°C 88% Calm Calm -- 30.11 in1019.6 mb - 0.00 in0.0 mm 0.00 in0.0 mm
02:40 AM 52.9°F11.6°C 49.4°F9.7°C 88% Calm Calm -- 30.11 in1019.6 mb - 0.00 in0.0 mm 0.00 in0.0 mm
02:30 AM 53.0°F11.7°C 49.6°F9.8°C 88% Calm Calm -- 30.11 in1019.6 mb - 0.00 in0.0 mm 0.00 in0.0 mm
02:20 AM 53.2°F11.8°C 49.7°F9.8°C 88% Calm Calm -- 30.11 in1019.6 mb - 0.00 in0.0 mm 0.00 in0.0 mm
02:10 AM 53.2°F11.8°C 49.4°F9.7°C 87% Calm Calm -- 30.12 in1020.0 mb - 0.00 in0.0 mm 0.00 in0.0 mm
02:00 AM 53.2°F11.8°C 49.5°F9.7°C 87% Calm Calm -- 30.12 in1020.0 mb - 0.00 in0.0 mm 0.00 in0.0 mm
01:50 AM 53.4°F11.9°C 49.6°F9.8°C 87% Calm Calm -- 30.12 in1020.0 mb - 0.00 in0.0 mm 0.00 in0.0 mm
01:40 AM 53.5°F11.9°C 49.4°F9.7°C 86% Calm Calm -- 30.12 in1020.0 mb - 0.00 in0.0 mm 0.00 in0.0 mm
01:30 AM 53.7°F12.1°C 49.6°F9.8°C 86% Calm Calm -- 30.12 in1020.0 mb - 0.00 in0.0 mm 0.00 in0.0 mm
01:20 AM 53.9°F12.2°C 49.8°F9.9°C 86% Calm Calm -- 30.12 in1020.0 mb - 0.00 in0.0 mm 0.00 in0.0 mm
01:10 AM 54.2°F12.3°C 50.1°F10.1°C 86% Calm Calm -- 30.12 in1020.0 mb - 0.00 in0.0 mm 0.00 in0.0 mm
01:00 AM 54.3°F12.4°C 50.2°F10.1°C 86% Calm Calm -- 30.12 in1020.0 mb - 0.00 in0.0 mm 0.00 in0.0 mm
12:50 AM 54.5°F12.5°C 50.4°F10.2°C 86% Calm Calm -- 30.13 in1020.3 mb - 0.00 in0.0 mm 0.00 in0.0 mm
12:40 AM 54.6°F12.6°C 50.5°F10.3°C 86% Calm Calm -- 30.13 in1020.3 mb - 0.00 in0.0 mm 0.00 in0.0 mm
12:30 AM 54.6°F12.6°C 50.5°F10.3°C 86% Calm Calm -- 30.13 in1020.3 mb - 0.00 in0.0 mm 0.00 in0.0 mm
12:20 AM 54.6°F12.6°C 50.2°F10.1°C 85% Calm Calm -- 30.13 in1020.3 mb - 0.00 in0.0 mm 0.00 in0.0 mm
12:10 AM 54.8°F12.7°C 49.7°F9.8°C 83% Calm Calm -- 30.13 in1020.3 mb - 0.00 in0.0 mm 0.00 in0.0 mm
12:00 AM 55.0°F12.8°C 49.9°F9.9°C 83% Calm Calm -- 30.13 in1020.3 mb - 0.00 in0.0 mm 0.00 in0.0 mm